sensor_id;sensor_type;location;lat;lon;timestamp;temperature;humidity
10583;DHT22;33679;51.218;6.786;2023-12-29T00:02:12;14.10;99.90
10583;DHT22;33679;51.218;6.786;2023-12-29T00:04:45;14.10;99.90
10583;DHT22;33679;51.218;6.786;2023-12-29T00:07:17;14.10;99.90
10583;DHT22;33679;51.218;6.786;2023-12-29T00:09:50;14.10;99.90
10583;DHT22;33679;51.218;6.786;2023-12-29T00:12:22;14.00;99.90
10583;DHT22;33679;51.218;6.786;2023-12-29T00:14:58;14.10;99.90
10583;DHT22;33679;51.218;6.786;2023-12-29T00:17:33;14.10;99.90
10583;DHT22;33679;51.218;6.786;2023-12-29T00:20:10;14.10;99.90
10583;DHT22;33679;51.218;6.786;2023-12-29T00:22:45;14.10;99.90
10583;DHT22;33679;51.218;6.786;2023-12-29T00:25:18;14.10;99.90
10583;DHT22;33679;51.218;6.786;2023-12-29T00:27:51;14.10;99.90
10583;DHT22;33679;51.218;6.786;2023-12-29T00:30:23;14.10;99.90
10583;DHT22;33679;51.218;6.786;2023-12-29T00:32:57;14.10;99.90
10583;DHT22;33679;51.218;6.786;2023-12-29T00:35:36;14.10;99.90
10583;DHT22;33679;51.218;6.786;2023-12-29T00:38:09;14.10;99.90
10583;DHT22;33679;51.218;6.786;2023-12-29T00:40:43;14.10;99.90
10583;DHT22;33679;51.218;6.786;2023-12-29T00:43:16;14.10;99.90
10583;DHT22;33679;51.218;6.786;2023-12-29T00:45:49;14.10;99.90
10583;DHT22;33679;51.218;6.786;2023-12-29T00:48:23;14.20;99.90
10583;DHT22;33679;51.218;6.786;2023-12-29T00:50:56;14.20;99.90
10583;DHT22;33679;51.218;6.786;2023-12-29T00:53:29;14.10;99.90
10583;DHT22;33679;51.218;6.786;2023-12-29T00:56:09;14.20;99.90
10583;DHT22;33679;51.218;6.786;2023-12-29T00:58:45;14.20;99.90
10583;DHT22;33679;51.218;6.786;2023-12-29T01:01:18;14.20;99.90
10583;DHT22;33679;51.218;6.786;2023-12-29T01:03:53;14.10;99.90
10583;DHT22;33679;51.218;6.786;2023-12-29T01:06:26;14.10;99.90
10583;DHT22;33679;51.218;6.786;2023-12-29T01:08:59;14.10;99.90
10583;DHT22;33679;51.218;6.786;2023-12-29T01:11:31;14.10;99.90
10583;DHT22;33679;51.218;6.786;2023-12-29T01:14:07;14.10;99.90
10583;DHT22;33679;51.218;6.786;2023-12-29T01:16:40;14.10;99.90
10583;DHT22;33679;51.218;6.786;2023-12-29T01:19:17;14.10;99.90
10583;DHT22;33679;51.218;6.786;2023-12-29T01:21:50;14.10;99.90
10583;DHT22;33679;51.218;6.786;2023-12-29T01:24:23;14.20;99.90
10583;DHT22;33679;51.218;6.786;2023-12-29T01:26:56;14.20;99.90
10583;DHT22;33679;51.218;6.786;2023-12-29T01:29:35;14.20;99.90
10583;DHT22;33679;51.218;6.786;2023-12-29T01:32:08;14.20;99.90
10583;DHT22;33679;51.218;6.786;2023-12-29T01:34:43;14.20;99.90
10583;DHT22;33679;51.218;6.786;2023-12-29T01:37:16;14.20;99.90
10583;DHT22;33679;51.218;6.786;2023-12-29T01:39:50;14.20;99.90
10583;DHT22;33679;51.218;6.786;2023-12-29T01:42:23;14.10;99.90
10583;DHT22;33679;51.218;6.786;2023-12-29T01:44:57;14.10;99.90
10583;DHT22;33679;51.218;6.786;2023-12-29T01:47:30;14.20;99.90
10583;DHT22;33679;51.218;6.786;2023-12-29T01:50:07;14.10;99.90
10583;DHT22;33679;51.218;6.786;2023-12-29T01:52:40;14.10;99.90
10583;DHT22;33679;51.218;6.786;2023-12-29T01:55:17;14.20;99.90
10583;DHT22;33679;51.218;6.786;2023-12-29T01:57:50;14.20;99.90
10583;DHT22;33679;51.218;6.786;2023-12-29T02:00:24;14.20;99.90
10583;DHT22;33679;51.218;6.786;2023-12-29T02:02:57;14.20;99.90
10583;DHT22;33679;51.218;6.786;2023-12-29T02:05:34;14.10;99.90
10583;DHT22;33679;51.218;6.786;2023-12-29T02:08:07;14.10;99.90
10583;DHT22;33679;51.218;6.786;2023-12-29T02:10:49;14.10;99.90
10583;DHT22;33679;51.218;6.786;2023-12-29T02:13:23;14.20;99.90
10583;DHT22;33679;51.218;6.786;2023-12-29T02:16:19;14.10;99.90
10583;DHT22;33679;51.218;6.786;2023-12-29T02:19:17;14.20;99.90
10583;DHT22;33679;51.218;6.786;2023-12-29T02:21:58;14.20;99.90
10583;DHT22;33679;51.218;6.786;2023-12-29T02:24:31;14.30;99.90
10583;DHT22;33679;51.218;6.786;2023-12-29T02:27:12;14.20;99.90
10583;DHT22;33679;51.218;6.786;2023-12-29T02:29:56;14.20;99.90
10583;DHT22;33679;51.218;6.786;2023-12-29T02:32:37;14.10;99.90
10583;DHT22;33679;51.218;6.786;2023-12-29T02:35:12;14.10;99.90
10583;DHT22;33679;51.218;6.786;2023-12-29T02:37:46;14.00;99.90
10583;DHT22;33679;51.218;6.786;2023-12-29T02:40:19;13.90;99.90
10583;DHT22;33679;51.218;6.786;2023-12-29T02:42:54;13.90;99.90
10583;DHT22;33679;51.218;6.786;2023-12-29T02:45:27;13.90;99.90
10583;DHT22;33679;51.218;6.786;2023-12-29T02:48:00;13.90;99.90
10583;DHT22;33679;51.218;6.786;2023-12-29T02:50:32;13.80;99.90
10583;DHT22;33679;51.218;6.786;2023-12-29T02:53:06;13.80;99.90
10583;DHT22;33679;51.218;6.786;2023-12-29T02:55:39;13.70;99.90
10583;DHT22;33679;51.218;6.786;2023-12-29T02:58:22;13.70;99.90
10583;DHT22;33679;51.218;6.786;2023-12-29T03:01:04;13.70;99.90
10583;DHT22;33679;51.218;6.786;2023-12-29T03:03:36;13.70;99.90
10583;DHT22;33679;51.218;6.786;2023-12-29T03:06:11;13.70;99.90
10583;DHT22;33679;51.218;6.786;2023-12-29T03:08:44;13.70;99.90
10583;DHT22;33679;51.218;6.786;2023-12-29T03:11:16;13.70;99.90
10583;DHT22;33679;51.218;6.786;2023-12-29T03:13:50;13.70;99.90
10583;DHT22;33679;51.218;6.786;2023-12-29T03:16:23;13.70;99.90
10583;DHT22;33679;51.218;6.786;2023-12-29T03:18:57;13.70;99.90
10583;DHT22;33679;51.218;6.786;2023-12-29T03:25:08;13.70;99.90
10583;DHT22;33679;51.218;6.786;2023-12-29T03:27:41;13.70;99.90
10583;DHT22;33679;51.218;6.786;2023-12-29T03:30:15;13.70;99.90
10583;DHT22;33679;51.218;6.786;2023-12-29T03:32:48;13.70;99.90
10583;DHT22;33679;51.218;6.786;2023-12-29T03:35:20;13.70;99.90
10583;DHT22;33679;51.218;6.786;2023-12-29T03:37:53;13.80;99.90
10583;DHT22;33679;51.218;6.786;2023-12-29T03:40:25;13.70;99.90
10583;DHT22;33679;51.218;6.786;2023-12-29T03:43:00;13.70;99.90
10583;DHT22;33679;51.218;6.786;2023-12-29T03:45:35;13.70;99.90
10583;DHT22;33679;51.218;6.786;2023-12-29T03:48:10;13.80;99.90
10583;DHT22;33679;51.218;6.786;2023-12-29T03:50:43;13.80;99.90
10583;DHT22;33679;51.218;6.786;2023-12-29T03:53:16;13.80;99.90
10583;DHT22;33679;51.218;6.786;2023-12-29T03:55:52;13.80;99.90
10583;DHT22;33679;51.218;6.786;2023-12-29T03:58:24;13.80;99.90
10583;DHT22;33679;51.218;6.786;2023-12-29T04:00:58;13.80;99.90
10583;DHT22;33679;51.218;6.786;2023-12-29T04:03:31;13.70;99.90
10583;DHT22;33679;51.218;6.786;2023-12-29T04:06:04;13.70;99.90
10583;DHT22;33679;51.218;6.786;2023-12-29T04:08:37;13.80;99.90
10583;DHT22;33679;51.218;6.786;2023-12-29T04:11:12;13.80;99.90
10583;DHT22;33679;51.218;6.786;2023-12-29T04:13:47;13.90;99.90
10583;DHT22;33679;51.218;6.786;2023-12-29T04:16:21;13.90;99.90
10583;DHT22;33679;51.218;6.786;2023-12-29T04:18:54;13.90;99.90
10583;DHT22;33679;51.218;6.786;2023-12-29T04:21:27;13.90;99.90
10583;DHT22;33679;51.218;6.786;2023-12-29T04:23:59;13.90;99.90
10583;DHT22;33679;51.218;6.786;2023-12-29T04:26:50;14.00;99.90
10583;DHT22;33679;51.218;6.786;2023-12-29T04:30:20;14.00;99.90
10583;DHT22;33679;51.218;6.786;2023-12-29T04:33:09;14.10;99.90
10583;DHT22;33679;51.218;6.786;2023-12-29T04:35:42;14.20;99.90
10583;DHT22;33679;51.218;6.786;2023-12-29T04:38:15;14.10;99.90
10583;DHT22;33679;51.218;6.786;2023-12-29T04:40:49;14.00;99.90
10583;DHT22;33679;51.218;6.786;2023-12-29T04:43:21;14.00;99.90
10583;DHT22;33679;51.218;6.786;2023-12-29T04:45:55;14.00;99.90
10583;DHT22;33679;51.218;6.786;2023-12-29T04:48:29;13.90;99.90
10583;DHT22;33679;51.218;6.786;2023-12-29T04:51:02;13.90;99.90
10583;DHT22;33679;51.218;6.786;2023-12-29T04:53:37;13.90;99.90
10583;DHT22;33679;51.218;6.786;2023-12-29T04:56:10;13.90;99.90
10583;DHT22;33679;51.218;6.786;2023-12-29T04:58:42;13.90;99.90
10583;DHT22;33679;51.218;6.786;2023-12-29T05:01:16;13.90;99.90
10583;DHT22;33679;51.218;6.786;2023-12-29T05:03:49;13.80;99.90
10583;DHT22;33679;51.218;6.786;2023-12-29T05:06:22;13.80;99.90
10583;DHT22;33679;51.218;6.786;2023-12-29T05:08:54;13.80;99.90
10583;DHT22;33679;51.218;6.786;2023-12-29T05:11:27;13.80;99.90
10583;DHT22;33679;51.218;6.786;2023-12-29T05:13:59;13.80;99.90
10583;DHT22;33679;51.218;6.786;2023-12-29T05:16:32;13.80;99.90
10583;DHT22;33679;51.218;6.786;2023-12-29T05:19:10;13.80;99.90
10583;DHT22;33679;51.218;6.786;2023-12-29T05:21:42;13.70;99.90
10583;DHT22;33679;51.218;6.786;2023-12-29T05:24:17;13.70;99.90
10583;DHT22;33679;51.218;6.786;2023-12-29T05:26:54;13.80;99.90
10583;DHT22;33679;51.218;6.786;2023-12-29T05:29:30;13.80;99.90
10583;DHT22;33679;51.218;6.786;2023-12-29T05:32:03;13.80;99.90
10583;DHT22;33679;51.218;6.786;2023-12-29T05:34:37;13.80;99.90
10583;DHT22;33679;51.218;6.786;2023-12-29T05:37:09;13.70;99.90
10583;DHT22;33679;51.218;6.786;2023-12-29T05:39:42;13.70;99.90
10583;DHT22;33679;51.218;6.786;2023-12-29T05:42:18;13.70;99.90
10583;DHT22;33679;51.218;6.786;2023-12-29T05:44:50;13.70;99.90
10583;DHT22;33679;51.218;6.786;2023-12-29T05:47:23;13.70;99.90
10583;DHT22;33679;51.218;6.786;2023-12-29T05:49:56;13.60;99.90
10583;DHT22;33679;51.218;6.786;2023-12-29T05:52:29;13.70;99.90
10583;DHT22;33679;51.218;6.786;2023-12-29T05:55:07;13.60;99.90
10583;DHT22;33679;51.218;6.786;2023-12-29T05:57:39;13.60;99.90
10583;DHT22;33679;51.218;6.786;2023-12-29T06:00:15;13.60;99.90
10583;DHT22;33679;51.218;6.786;2023-12-29T06:02:48;13.60;99.90
10583;DHT22;33679;51.218;6.786;2023-12-29T06:05:24;13.60;99.90
10583;DHT22;33679;51.218;6.786;2023-12-29T06:07:57;13.60;99.90
10583;DHT22;33679;51.218;6.786;2023-12-29T06:10:30;13.60;99.90
10583;DHT22;33679;51.218;6.786;2023-12-29T06:13:02;13.50;99.90
10583;DHT22;33679;51.218;6.786;2023-12-29T06:15:35;13.60;99.90
10583;DHT22;33679;51.218;6.786;2023-12-29T06:18:10;13.50;99.90
10583;DHT22;33679;51.218;6.786;2023-12-29T06:20:46;13.50;99.90
10583;DHT22;33679;51.218;6.786;2023-12-29T06:23:21;13.50;99.90
10583;DHT22;33679;51.218;6.786;2023-12-29T06:25:54;13.50;99.90
10583;DHT22;33679;51.218;6.786;2023-12-29T06:28:26;13.60;99.90
10583;DHT22;33679;51.218;6.786;2023-12-29T06:31:03;13.50;99.90
10583;DHT22;33679;51.218;6.786;2023-12-29T06:33:40;13.50;99.90
10583;DHT22;33679;51.218;6.786;2023-12-29T06:36:15;13.60;99.90
10583;DHT22;33679;51.218;6.786;2023-12-29T06:38:47;13.60;99.90
10583;DHT22;33679;51.218;6.786;2023-12-29T06:41:21;13.50;99.90
10583;DHT22;33679;51.218;6.786;2023-12-29T06:43:56;13.60;99.90
10583;DHT22;33679;51.218;6.786;2023-12-29T06:46:29;13.60;99.90
10583;DHT22;33679;51.218;6.786;2023-12-29T06:49:01;13.60;99.90
10583;DHT22;33679;51.218;6.786;2023-12-29T06:51:35;13.60;99.90
10583;DHT22;33679;51.218;6.786;2023-12-29T06:54:09;13.60;99.90
10583;DHT22;33679;51.218;6.786;2023-12-29T06:56:42;13.60;99.90
10583;DHT22;33679;51.218;6.786;2023-12-29T06:59:14;13.60;99.90
10583;DHT22;33679;51.218;6.786;2023-12-29T07:01:47;13.60;99.90
10583;DHT22;33679;51.218;6.786;2023-12-29T07:04:19;13.70;99.90
10583;DHT22;33679;51.218;6.786;2023-12-29T07:06:55;13.70;99.90
10583;DHT22;33679;51.218;6.786;2023-12-29T07:09:29;13.60;99.90
10583;DHT22;33679;51.218;6.786;2023-12-29T07:12:04;13.60;99.90
10583;DHT22;33679;51.218;6.786;2023-12-29T07:14:36;13.70;99.90
10583;DHT22;33679;51.218;6.786;2023-12-29T07:17:09;13.70;99.90
10583;DHT22;33679;51.218;6.786;2023-12-29T07:19:47;13.80;99.90
10583;DHT22;33679;51.218;6.786;2023-12-29T07:22:22;13.80;99.90
10583;DHT22;33679;51.218;6.786;2023-12-29T07:24:55;13.70;99.90
10583;DHT22;33679;51.218;6.786;2023-12-29T07:27:31;13.80;99.90
10583;DHT22;33679;51.218;6.786;2023-12-29T07:30:07;13.80;99.90
10583;DHT22;33679;51.218;6.786;2023-12-29T07:32:41;13.80;99.90
10583;DHT22;33679;51.218;6.786;2023-12-29T07:35:17;13.80;99.90
10583;DHT22;33679;51.218;6.786;2023-12-29T07:37:55;13.80;99.90
10583;DHT22;33679;51.218;6.786;2023-12-29T07:40:39;13.80;99.90
10583;DHT22;33679;51.218;6.786;2023-12-29T07:43:12;13.90;99.90
10583;DHT22;33679;51.218;6.786;2023-12-29T07:45:45;13.90;99.90
10583;DHT22;33679;51.218;6.786;2023-12-29T07:48:18;13.90;99.90
10583;DHT22;33679;51.218;6.786;2023-12-29T07:50:52;13.90;99.90
10583;DHT22;33679;51.218;6.786;2023-12-29T07:53:29;13.90;99.90
10583;DHT22;33679;51.218;6.786;2023-12-29T07:56:03;13.90;99.90
10583;DHT22;33679;51.218;6.786;2023-12-29T07:58:36;13.90;99.90
10583;DHT22;33679;51.218;6.786;2023-12-29T08:01:09;13.80;99.90
10583;DHT22;33679;51.218;6.786;2023-12-29T08:03:42;13.90;99.90
10583;DHT22;33679;51.218;6.786;2023-12-29T08:06:14;13.90;99.90
10583;DHT22;33679;51.218;6.786;2023-12-29T08:08:49;13.80;99.90
10583;DHT22;33679;51.218;6.786;2023-12-29T08:11:24;13.70;99.90
10583;DHT22;33679;51.218;6.786;2023-12-29T08:13:56;13.80;99.90
10583;DHT22;33679;51.218;6.786;2023-12-29T08:16:29;13.70;99.90
10583;DHT22;33679;51.218;6.786;2023-12-29T08:19:01;13.70;99.90
10583;DHT22;33679;51.218;6.786;2023-12-29T08:21:33;13.70;99.90
10583;DHT22;33679;51.218;6.786;2023-12-29T08:24:07;13.70;99.90
10583;DHT22;33679;51.218;6.786;2023-12-29T08:26:44;13.70;99.90
10583;DHT22;33679;51.218;6.786;2023-12-29T08:29:17;13.60;99.90
10583;DHT22;33679;51.218;6.786;2023-12-29T08:31:51;13.60;99.90
10583;DHT22;33679;51.218;6.786;2023-12-29T08:34:24;13.50;99.90
10583;DHT22;33679;51.218;6.786;2023-12-29T08:36:56;13.50;99.90
10583;DHT22;33679;51.218;6.786;2023-12-29T08:39:31;13.60;99.90
10583;DHT22;33679;51.218;6.786;2023-12-29T08:42:05;13.50;99.90
10583;DHT22;33679;51.218;6.786;2023-12-29T08:44:38;13.50;99.90
10583;DHT22;33679;51.218;6.786;2023-12-29T08:47:10;13.50;99.90
10583;DHT22;33679;51.218;6.786;2023-12-29T08:49:44;13.50;99.90
10583;DHT22;33679;51.218;6.786;2023-12-29T08:52:18;13.40;99.90
10583;DHT22;33679;51.218;6.786;2023-12-29T08:54:52;13.40;99.90
10583;DHT22;33679;51.218;6.786;2023-12-29T08:57:24;13.30;99.90
10583;DHT22;33679;51.218;6.786;2023-12-29T08:59:57;13.30;99.90
10583;DHT22;33679;51.218;6.786;2023-12-29T09:02:30;13.30;99.90
10583;DHT22;33679;51.218;6.786;2023-12-29T09:05:06;13.20;99.90
10583;DHT22;33679;51.218;6.786;2023-12-29T09:07:40;13.20;99.90
10583;DHT22;33679;51.218;6.786;2023-12-29T09:10:16;13.20;99.90
10583;DHT22;33679;51.218;6.786;2023-12-29T09:12:51;13.20;99.90
10583;DHT22;33679;51.218;6.786;2023-12-29T09:15:23;13.20;99.90
10583;DHT22;33679;51.218;6.786;2023-12-29T09:17:56;13.20;99.90
10583;DHT22;33679;51.218;6.786;2023-12-29T09:20:32;13.20;99.90
10583;DHT22;33679;51.218;6.786;2023-12-29T09:23:05;13.20;99.90
10583;DHT22;33679;51.218;6.786;2023-12-29T09:25:40;13.20;99.90
10583;DHT22;33679;51.218;6.786;2023-12-29T09:28:14;13.30;99.90
10583;DHT22;33679;51.218;6.786;2023-12-29T09:30:47;13.30;99.90
10583;DHT22;33679;51.218;6.786;2023-12-29T09:33:22;13.40;99.90
10583;DHT22;33679;51.218;6.786;2023-12-29T09:35:59;13.30;99.90
10583;DHT22;33679;51.218;6.786;2023-12-29T09:38:33;13.30;99.90
10583;DHT22;33679;51.218;6.786;2023-12-29T09:41:13;13.40;99.90
10583;DHT22;33679;51.218;6.786;2023-12-29T09:43:48;13.40;99.90
10583;DHT22;33679;51.218;6.786;2023-12-29T09:46:23;13.40;99.90
10583;DHT22;33679;51.218;6.786;2023-12-29T09:48:58;13.40;99.90
10583;DHT22;33679;51.218;6.786;2023-12-29T09:51:38;13.40;99.90
10583;DHT22;33679;51.218;6.786;2023-12-29T09:54:11;13.40;99.90
10583;DHT22;33679;51.218;6.786;2023-12-29T09:56:45;13.40;99.90
10583;DHT22;33679;51.218;6.786;2023-12-29T09:59:18;13.40;99.90
10583;DHT22;33679;51.218;6.786;2023-12-29T10:01:51;13.40;99.90
10583;DHT22;33679;51.218;6.786;2023-12-29T10:04:26;13.40;99.90
10583;DHT22;33679;51.218;6.786;2023-12-29T10:07:01;13.40;99.90
10583;DHT22;33679;51.218;6.786;2023-12-29T10:09:37;13.40;99.90
10583;DHT22;33679;51.218;6.786;2023-12-29T10:12:13;13.40;99.90
10583;DHT22;33679;51.218;6.786;2023-12-29T10:14:52;13.40;99.90
10583;DHT22;33679;51.218;6.786;2023-12-29T10:17:41;13.50;99.90
10583;DHT22;33679;51.218;6.786;2023-12-29T10:20:37;13.50;99.90
10583;DHT22;33679;51.218;6.786;2023-12-29T10:23:17;13.40;99.90
10583;DHT22;33679;51.218;6.786;2023-12-29T10:25:54;13.50;99.90
10583;DHT22;33679;51.218;6.786;2023-12-29T10:28:30;13.50;99.90
10583;DHT22;33679;51.218;6.786;2023-12-29T10:31:04;13.50;99.90
10583;DHT22;33679;51.218;6.786;2023-12-29T10:33:39;13.50;99.90
10583;DHT22;33679;51.218;6.786;2023-12-29T10:36:11;13.60;99.90
10583;DHT22;33679;51.218;6.786;2023-12-29T10:38:44;13.60;99.90
10583;DHT22;33679;51.218;6.786;2023-12-29T10:41:23;13.60;99.90
10583;DHT22;33679;51.218;6.786;2023-12-29T10:44:06;13.60;99.90
10583;DHT22;33679;51.218;6.786;2023-12-29T10:46:41;13.60;99.90
10583;DHT22;33679;51.218;6.786;2023-12-29T10:49:19;13.70;99.90
10583;DHT22;33679;51.218;6.786;2023-12-29T10:51:54;13.70;99.90
10583;DHT22;33679;51.218;6.786;2023-12-29T10:54:30;13.70;99.90
10583;DHT22;33679;51.218;6.786;2023-12-29T10:57:11;13.70;99.90
10583;DHT22;33679;51.218;6.786;2023-12-29T10:59:54;13.80;99.90
10583;DHT22;33679;51.218;6.786;2023-12-29T11:02:28;13.80;99.90
10583;DHT22;33679;51.218;6.786;2023-12-29T11:05:05;13.90;99.90
10583;DHT22;33679;51.218;6.786;2023-12-29T11:07:43;13.90;99.90
10583;DHT22;33679;51.218;6.786;2023-12-29T11:10:18;13.90;99.90
10583;DHT22;33679;51.218;6.786;2023-12-29T11:12:52;14.00;99.90
10583;DHT22;33679;51.218;6.786;2023-12-29T11:15:27;14.00;99.90
10583;DHT22;33679;51.218;6.786;2023-12-29T11:18:04;14.00;99.90
10583;DHT22;33679;51.218;6.786;2023-12-29T11:20:39;14.00;99.90
10583;DHT22;33679;51.218;6.786;2023-12-29T11:23:12;14.10;99.90
10583;DHT22;33679;51.218;6.786;2023-12-29T11:25:46;14.10;99.90
10583;DHT22;33679;51.218;6.786;2023-12-29T11:28:21;14.20;99.90
10583;DHT22;33679;51.218;6.786;2023-12-29T11:30:55;14.30;99.90
10583;DHT22;33679;51.218;6.786;2023-12-29T11:33:31;14.30;99.90
10583;DHT22;33679;51.218;6.786;2023-12-29T11:36:10;14.30;99.90
10583;DHT22;33679;51.218;6.786;2023-12-29T11:38:54;14.20;99.90
10583;DHT22;33679;51.218;6.786;2023-12-29T11:41:38;14.30;99.90
10583;DHT22;33679;51.218;6.786;2023-12-29T11:44:24;14.30;99.90
10583;DHT22;33679;51.218;6.786;2023-12-29T11:46:59;14.20;99.90
10583;DHT22;33679;51.218;6.786;2023-12-29T11:49:59;14.20;99.90
10583;DHT22;33679;51.218;6.786;2023-12-29T11:52:34;14.20;99.90
10583;DHT22;33679;51.218;6.786;2023-12-29T11:55:11;14.10;99.90
10583;DHT22;33679;51.218;6.786;2023-12-29T11:57:44;14.00;99.90
10583;DHT22;33679;51.218;6.786;2023-12-29T12:00:16;14.00;99.90
10583;DHT22;33679;51.218;6.786;2023-12-29T12:02:51;14.00;99.90
10583;DHT22;33679;51.218;6.786;2023-12-29T12:05:47;14.00;99.90
10583;DHT22;33679;51.218;6.786;2023-12-29T12:08:30;14.00;99.90
10583;DHT22;33679;51.218;6.786;2023-12-29T12:14:09;13.90;99.90
10583;DHT22;33679;51.218;6.786;2023-12-29T12:16:48;13.80;99.90
10583;DHT22;33679;51.218;6.786;2023-12-29T12:19:24;13.70;99.90
10583;DHT22;33679;51.218;6.786;2023-12-29T12:21:59;13.70;99.90
10583;DHT22;33679;51.218;6.786;2023-12-29T12:24:33;13.70;99.90
10583;DHT22;33679;51.218;6.786;2023-12-29T12:27:09;13.70;99.90
10583;DHT22;33679;51.218;6.786;2023-12-29T12:29:43;13.70;99.90
10583;DHT22;33679;51.218;6.786;2023-12-29T12:32:16;13.80;99.90
10583;DHT22;33679;51.218;6.786;2023-12-29T12:34:50;13.80;99.90
10583;DHT22;33679;51.218;6.786;2023-12-29T12:37:23;13.80;99.90
10583;DHT22;33679;51.218;6.786;2023-12-29T12:39:56;13.90;99.90
10583;DHT22;33679;51.218;6.786;2023-12-29T12:42:29;14.00;99.90
10583;DHT22;33679;51.218;6.786;2023-12-29T12:45:06;14.00;99.90
10583;DHT22;33679;51.218;6.786;2023-12-29T12:47:44;14.00;99.90
10583;DHT22;33679;51.218;6.786;2023-12-29T12:50:19;14.10;99.90
10583;DHT22;33679;51.218;6.786;2023-12-29T12:52:53;14.00;99.90
10583;DHT22;33679;51.218;6.786;2023-12-29T12:55:25;14.00;99.90
10583;DHT22;33679;51.218;6.786;2023-12-29T12:57:57;14.00;99.90
10583;DHT22;33679;51.218;6.786;2023-12-29T13:00:30;14.00;99.90
10583;DHT22;33679;51.218;6.786;2023-12-29T13:03:02;13.90;99.90
10583;DHT22;33679;51.218;6.786;2023-12-29T13:05:37;13.90;99.90
10583;DHT22;33679;51.218;6.786;2023-12-29T13:08:11;13.90;99.90
10583;DHT22;33679;51.218;6.786;2023-12-29T13:10:45;14.00;99.90
10583;DHT22;33679;51.218;6.786;2023-12-29T13:13:17;14.00;99.90
10583;DHT22;33679;51.218;6.786;2023-12-29T13:15:51;14.00;99.90
10583;DHT22;33679;51.218;6.786;2023-12-29T13:18:29;14.00;99.90
10583;DHT22;33679;51.218;6.786;2023-12-29T13:21:06;14.00;99.90
10583;DHT22;33679;51.218;6.786;2023-12-29T13:23:39;14.00;99.90
10583;DHT22;33679;51.218;6.786;2023-12-29T13:26:12;14.00;99.90
10583;DHT22;33679;51.218;6.786;2023-12-29T13:28:47;14.00;99.90
10583;DHT22;33679;51.218;6.786;2023-12-29T13:31:20;14.00;99.90
10583;DHT22;33679;51.218;6.786;2023-12-29T13:33:59;14.00;99.90
10583;DHT22;33679;51.218;6.786;2023-12-29T13:36:38;14.00;99.90
10583;DHT22;33679;51.218;6.786;2023-12-29T13:39:16;14.00;99.90
10583;DHT22;33679;51.218;6.786;2023-12-29T13:41:55;14.00;99.90
10583;DHT22;33679;51.218;6.786;2023-12-29T13:44:30;14.00;99.90
10583;DHT22;33679;51.218;6.786;2023-12-29T13:47:04;14.00;99.90
10583;DHT22;33679;51.218;6.786;2023-12-29T13:49:37;14.00;99.90
10583;DHT22;33679;51.218;6.786;2023-12-29T13:52:12;14.00;99.90
10583;DHT22;33679;51.218;6.786;2023-12-29T13:54:46;14.10;99.90
10583;DHT22;33679;51.218;6.786;2023-12-29T13:57:18;14.10;99.90
10583;DHT22;33679;51.218;6.786;2023-12-29T13:59:53;14.00;99.90
10583;DHT22;33679;51.218;6.786;2023-12-29T14:02:28;14.00;99.90
10583;DHT22;33679;51.218;6.786;2023-12-29T14:05:11;14.10;99.90
10583;DHT22;33679;51.218;6.786;2023-12-29T14:07:55;14.10;99.90
10583;DHT22;33679;51.218;6.786;2023-12-29T14:10:31;14.00;99.90
10583;DHT22;33679;51.218;6.786;2023-12-29T14:13:06;14.00;99.90
10583;DHT22;33679;51.218;6.786;2023-12-29T14:15:40;14.00;99.90
10583;DHT22;33679;51.218;6.786;2023-12-29T14:18:31;14.00;99.90
10583;DHT22;33679;51.218;6.786;2023-12-29T14:21:22;13.90;99.90
10583;DHT22;33679;51.218;6.786;2023-12-29T14:24:09;13.90;99.90
10583;DHT22;33679;51.218;6.786;2023-12-29T14:26:54;13.90;99.90
10583;DHT22;33679;51.218;6.786;2023-12-29T14:29:40;13.80;99.90
10583;DHT22;33679;51.218;6.786;2023-12-29T14:32:17;13.90;99.90
10583;DHT22;33679;51.218;6.786;2023-12-29T14:34:50;13.80;99.90
10583;DHT22;33679;51.218;6.786;2023-12-29T14:37:24;13.80;99.90
10583;DHT22;33679;51.218;6.786;2023-12-29T14:39:59;13.70;99.90
10583;DHT22;33679;51.218;6.786;2023-12-29T14:42:36;13.70;99.90
10583;DHT22;33679;51.218;6.786;2023-12-29T14:45:13;13.70;99.90
10583;DHT22;33679;51.218;6.786;2023-12-29T14:47:47;13.70;99.90
10583;DHT22;33679;51.218;6.786;2023-12-29T14:50:20;13.60;99.90
10583;DHT22;33679;51.218;6.786;2023-12-29T14:52:53;13.60;99.90
10583;DHT22;33679;51.218;6.786;2023-12-29T14:55:27;13.50;99.90
10583;DHT22;33679;51.218;6.786;2023-12-29T14:58:00;13.50;99.90
10583;DHT22;33679;51.218;6.786;2023-12-29T15:00:32;13.40;99.90
10583;DHT22;33679;51.218;6.786;2023-12-29T15:03:05;13.30;99.90
10583;DHT22;33679;51.218;6.786;2023-12-29T15:05:38;13.30;99.90
10583;DHT22;33679;51.218;6.786;2023-12-29T15:08:11;13.30;99.90
10583;DHT22;33679;51.218;6.786;2023-12-29T15:10:45;13.30;99.90
10583;DHT22;33679;51.218;6.786;2023-12-29T15:13:17;13.20;99.90
10583;DHT22;33679;51.218;6.786;2023-12-29T15:15:50;13.30;99.90
10583;DHT22;33679;51.218;6.786;2023-12-29T15:18:23;13.20;99.90
10583;DHT22;33679;51.218;6.786;2023-12-29T15:20:55;13.30;99.90
10583;DHT22;33679;51.218;6.786;2023-12-29T15:23:28;13.30;99.90
10583;DHT22;33679;51.218;6.786;2023-12-29T15:26:06;13.40;99.90
10583;DHT22;33679;51.218;6.786;2023-12-29T15:28:39;13.50;99.90
10583;DHT22;33679;51.218;6.786;2023-12-29T15:31:12;13.50;99.90
10583;DHT22;33679;51.218;6.786;2023-12-29T15:33:47;13.60;99.90
10583;DHT22;33679;51.218;6.786;2023-12-29T15:36:19;13.60;99.90
10583;DHT22;33679;51.218;6.786;2023-12-29T15:38:55;13.70;99.90
10583;DHT22;33679;51.218;6.786;2023-12-29T15:41:31;13.70;99.90
10583;DHT22;33679;51.218;6.786;2023-12-29T15:44:04;13.80;99.90
10583;DHT22;33679;51.218;6.786;2023-12-29T15:46:39;13.80;99.90
10583;DHT22;33679;51.218;6.786;2023-12-29T15:49:11;13.80;99.90
10583;DHT22;33679;51.218;6.786;2023-12-29T15:51:48;13.90;99.90
10583;DHT22;33679;51.218;6.786;2023-12-29T15:54:20;13.90;99.90
10583;DHT22;33679;51.218;6.786;2023-12-29T15:56:54;14.00;99.90
10583;DHT22;33679;51.218;6.786;2023-12-29T15:59:26;14.00;99.90
10583;DHT22;33679;51.218;6.786;2023-12-29T16:01:59;14.00;99.90
10583;DHT22;33679;51.218;6.786;2023-12-29T16:04:32;14.00;99.90
10583;DHT22;33679;51.218;6.786;2023-12-29T16:07:04;13.90;99.90
10583;DHT22;33679;51.218;6.786;2023-12-29T16:09:36;13.90;99.90
10583;DHT22;33679;51.218;6.786;2023-12-29T16:12:10;13.90;99.90
10583;DHT22;33679;51.218;6.786;2023-12-29T16:14:43;13.90;99.90
10583;DHT22;33679;51.218;6.786;2023-12-29T16:17:16;13.90;99.90
10583;DHT22;33679;51.218;6.786;2023-12-29T16:19:48;14.00;99.90
10583;DHT22;33679;51.218;6.786;2023-12-29T16:22:21;14.00;99.90
10583;DHT22;33679;51.218;6.786;2023-12-29T16:24:53;13.90;99.90
10583;DHT22;33679;51.218;6.786;2023-12-29T16:27:28;13.90;99.90